Time;durP1;ratioP1;P1;durP2;ratioP2;P2;SDS_P1;SDS_P2;PMS_P1;PMS_P2;Temp;Humidity;BMP_temperature;BMP_pressure;BME280_temperature;BME280_humidity;BME280_pressure;Samples;Min_cycle;Max_cycle;Signal;HPM_P1;HPM_P2
2021/09/03 00:02:23;;;;;;;2.37;0.85;;;;;;;10.77;62.88;100637.48;1726868;81;21142;-68
2021/09/03 00:04:49;;;;;;;4.87;1.50;;;;;;;10.84;62.69;100641.79;1725964;81;21153;-68
2021/09/03 00:07:16;;;;;;;4.15;1.17;;;;;;;10.90;62.68;100645.77;1728927;81;21097;-69
2021/09/03 00:09:44;;;;;;;3.90;1.10;;;;;;;10.91;62.50;100648.73;1714331;81;21088;-68
2021/09/03 00:12:11;;;;;;;3.65;1.10;;;;;;;10.87;62.49;100644.19;1724349;81;21609;-68
2021/09/03 00:14:38;;;;;;;3.22;0.68;;;;;;;10.78;62.52;100641.80;1725796;81;21231;-69
2021/09/03 00:17:04;;;;;;;5.10;1.47;;;;;;;10.71;62.78;100637.14;1727363;81;21067;-69
2021/09/03 00:19:32;;;;;;;3.33;0.80;;;;;;;10.60;62.79;100653.23;1722520;81;21045;-70
2021/09/03 00:22:00;;;;;;;3.77;1.00;;;;;;;10.51;62.94;100653.95;1726012;81;21137;-70
2021/09/03 00:24:26;;;;;;;2.87;0.93;;;;;;;10.44;62.93;100646.17;1710623;81;21060;-69
2021/09/03 00:26:53;;;;;;;2.95;1.10;;;;;;;10.35;63.15;100637.16;1725905;81;21058;-70
2021/09/03 00:29:21;;;;;;;5.87;1.05;;;;;;;10.30;63.30;100634.48;1710152;81;21062;-69
2021/09/03 00:31:47;;;;;;;2.55;0.70;;;;;;;10.34;63.35;100636.81;1727266;81;21103;-71
2021/09/03 00:34:14;;;;;;;5.95;1.05;;;;;;;10.47;63.14;100639.33;1725238;81;23304;-71
2021/09/03 00:36:43;;;;;;;3.20;0.80;;;;;;;10.54;62.90;100644.52;1729512;81;21013;-71
2021/09/03 00:39:09;;;;;;;2.15;0.78;;;;;;;10.53;62.91;100648.09;1723950;81;21070;-70
2021/09/03 00:41:37;;;;;;;2.62;0.90;;;;;;;10.51;63.02;100650.49;1728570;81;21101;-70
2021/09/03 00:44:04;;;;;;;4.03;1.05;;;;;;;10.45;63.00;100645.20;1727999;81;21086;-70
2021/09/03 00:46:31;;;;;;;2.72;1.02;;;;;;;10.39;63.18;100642.56;1726410;81;21193;-69
2021/09/03 00:48:58;;;;;;;2.80;0.78;;;;;;;10.37;63.17;100643.61;1703811;82;21072;-70
2021/09/03 00:51:24;;;;;;;4.30;1.55;;;;;;;10.34;63.17;100640.75;1718832;81;21061;-68
2021/09/03 00:53:51;;;;;;;2.90;0.88;;;;;;;10.29;63.31;100643.31;1711415;82;21087;-70
2021/09/03 00:56:18;;;;;;;3.00;0.85;;;;;;;10.28;63.26;100641.66;1702258;82;21585;-70
2021/09/03 00:58:45;;;;;;;3.52;0.93;;;;;;;10.33;63.19;100643.50;1699927;83;21119;-69
2021/09/03 01:01:13;;;;;;;3.20;0.60;;;;;;;10.36;63.10;100640.16;1719143;81;21069;-70
2021/09/03 01:03:41;;;;;;;3.55;1.07;;;;;;;10.32;63.19;100640.49;1709069;81;21059;-69
2021/09/03 01:06:07;;;;;;;4.78;1.27;;;;;;;10.28;63.19;100648.23;1706000;81;21597;-69
2021/09/03 01:08:34;;;;;;;3.33;0.88;;;;;;;10.22;63.38;100648.19;1730056;81;21091;-69
2021/09/03 01:11:02;;;;;;;2.70;0.70;;;;;;;10.17;63.58;100647.24;1716453;81;21099;-70
2021/09/03 01:13:30;;;;;;;3.70;0.90;;;;;;;10.11;63.64;100647.69;1714568;81;21552;-68
2021/09/03 01:15:56;;;;;;;3.20;1.10;;;;;;;10.08;63.75;100652.34;1717238;81;21135;-69
2021/09/03 01:18:22;;;;;;;3.37;0.80;;;;;;;10.00;63.89;100640.60;1718762;81;21590;-69
2021/09/03 01:20:48;;;;;;;3.72;0.88;;;;;;;10.00;63.97;100650.26;1717297;81;21082;-70
2021/09/03 01:23:15;;;;;;;2.35;0.50;;;;;;;10.06;63.93;100651.13;1712185;81;21535;-69
2021/09/03 01:25:42;;;;;;;2.52;0.62;;;;;;;10.12;63.87;100649.83;1712755;81;21056;-69
2021/09/03 01:28:08;;;;;;;2.52;0.80;;;;;;;10.15;63.90;100654.38;1718711;82;21072;-71
2021/09/03 01:30:35;;;;;;;3.42;0.90;;;;;;;10.16;63.94;100654.76;1704432;82;21550;-72
2021/09/03 01:33:01;;;;;;;3.10;1.07;;;;;;;10.15;63.93;100653.55;1690095;83;21604;-69
2021/09/03 01:35:27;;;;;;;3.65;0.85;;;;;;;10.11;63.98;100649.48;1720404;81;21076;-70
2021/09/03 01:37:54;;;;;;;4.35;1.00;;;;;;;10.08;64.09;100651.85;1703929;82;21528;-70
2021/09/03 01:40:21;;;;;;;2.77;0.93;;;;;;;10.03;64.18;100656.61;1709947;81;21049;-69
2021/09/03 01:42:47;;;;;;;2.95;0.80;;;;;;;10.00;64.18;100659.45;1713563;81;21052;-69
2021/09/03 01:45:14;;;;;;;2.80;0.93;;;;;;;9.95;64.23;100647.13;1713764;81;21051;-70
2021/09/03 01:47:40;;;;;;;3.67;0.85;;;;;;;9.91;64.32;100648.32;1718947;81;21138;-68
2021/09/03 01:50:07;;;;;;;3.70;1.15;;;;;;;9.91;64.41;100649.14;1707087;82;21033;-70
2021/09/03 01:52:34;;;;;;;2.72;0.55;;;;;;;9.99;64.38;100648.11;1708950;82;21059;-70
2021/09/03 01:55:03;;;;;;;3.20;1.15;;;;;;;10.07;64.39;100647.56;1717837;82;21098;-70
2021/09/03 01:57:30;;;;;;;4.05;1.15;;;;;;;10.08;64.33;100641.33;1718011;82;21028;-70
2021/09/03 01:59:57;;;;;;;3.02;0.85;;;;;;;10.07;64.40;100640.99;1717345;81;21083;-70
2021/09/03 02:02:23;;;;;;;4.72;1.30;;;;;;;10.06;64.52;100642.42;1714915;81;21065;-69
2021/09/03 02:04:50;;;;;;;3.08;1.00;;;;;;;10.04;64.50;100646.47;1718625;81;21115;-69
2021/09/03 02:07:16;;;;;;;3.37;0.98;;;;;;;10.03;64.43;100642.16;1729074;81;21112;-72
2021/09/03 02:09:42;;;;;;;2.65;0.90;;;;;;;9.99;64.39;100649.43;1717652;81;21099;-70
2021/09/03 02:12:12;;;;;;;2.98;0.80;;;;;;;9.91;64.65;100647.83;1719065;81;21726;-70
2021/09/03 02:14:43;;;;;;;5.40;1.10;;;;;;;9.85;64.74;100645.19;1712190;81;21598;-70
2021/09/03 02:17:10;;;;;;;3.12;0.70;;;;;;;9.85;64.80;100637.76;1710803;81;21571;-70
2021/09/03 02:19:37;;;;;;;2.98;0.85;;;;;;;9.91;64.64;100643.06;1711985;81;22623;-69
2021/09/03 02:22:04;;;;;;;2.33;0.70;;;;;;;9.94;64.53;100647.61;1705377;82;21035;-70
2021/09/03 02:24:31;;;;;;;3.77;1.25;;;;;;;9.97;64.44;100645.22;1713679;81;21135;-71
2021/09/03 02:26:57;;;;;;;2.98;0.80;;;;;;;9.96;64.39;100643.56;1708334;81;21071;-70
2021/09/03 02:29:24;;;;;;;2.55;1.02;;;;;;;9.94;64.40;100644.16;1719271;81;21063;-69
2021/09/03 02:31:51;;;;;;;7.37;1.10;;;;;;;9.89;64.47;100645.80;1696726;82;21081;-69
2021/09/03 02:34:17;;;;;;;2.83;0.70;;;;;;;9.86;64.58;100646.84;1706012;82;21091;-70
2021/09/03 02:36:44;;;;;;;5.30;0.80;;;;;;;9.81;64.66;100645.03;1719224;82;21067;-70
2021/09/03 02:39:11;;;;;;;2.95;0.88;;;;;;;9.78;64.80;100646.56;1721987;81;21110;-70
2021/09/03 02:41:38;;;;;;;2.92;0.70;;;;;;;9.73;64.81;100644.74;1719887;81;21087;-70
2021/09/03 02:44:05;;;;;;;2.15;0.85;;;;;;;9.66;64.94;100646.14;1722505;81;22230;-70
2021/09/03 02:46:31;;;;;;;5.53;1.00;;;;;;;9.64;65.03;100648.88;1715787;81;21059;-70
2021/09/03 02:48:57;;;;;;;2.05;0.68;;;;;;;9.69;64.95;100650.36;1728806;81;21549;-70
2021/09/03 02:51:26;;;;;;;2.75;0.90;;;;;;;9.73;64.87;100646.06;1729571;81;21120;-68
2021/09/03 02:53:53;;;;;;;2.20;0.70;;;;;;;9.76;64.81;100650.27;1725414;81;21060;-69
2021/09/03 02:56:20;;;;;;;2.40;0.90;;;;;;;9.71;64.90;100644.02;1715189;81;21549;-69
2021/09/03 02:58:47;;;;;;;3.35;0.70;;;;;;;9.67;65.17;100653.09;1724581;81;21125;-70
2021/09/03 03:01:13;;;;;;;4.33;1.10;;;;;;;9.63;65.22;100652.92;1723713;81;21134;-74
2021/09/03 03:03:39;;;;;;;6.67;1.10;;;;;;;9.54;65.39;100649.18;1718800;81;21086;-74
2021/09/03 03:06:06;;;;;;;3.77;0.95;;;;;;;9.47;65.52;100644.00;1719088;81;21060;-62
2021/09/03 03:08:32;;;;;;;3.52;0.90;;;;;;;9.42;65.58;100643.02;1723903;81;21779;-75
2021/09/03 03:11:00;;;;;;;2.15;0.57;;;;;;;9.40;65.66;100646.23;1719785;81;21583;-73
2021/09/03 03:13:29;;;;;;;2.98;1.17;;;;;;;9.39;65.86;100652.90;1724330;81;21129;-73
2021/09/03 03:15:55;;;;;;;4.17;0.93;;;;;;;9.41;65.81;100646.58;1708244;82;21103;-74
2021/09/03 03:18:23;;;;;;;3.45;1.20;;;;;;;9.43;65.81;100648.64;1719187;81;21120;-73
2021/09/03 03:20:51;;;;;;;3.33;0.85;;;;;;;9.44;65.85;100650.30;1725175;81;21522;-75
2021/09/03 03:27:13;;;;;;;2.92;1.10;;;;;;;9.36;66.18;100656.56;1721837;81;21087;-75
2021/09/03 03:29:40;;;;;;;4.45;1.15;;;;;;;9.26;66.57;100647.21;1727508;82;21607;-72
2021/09/03 03:32:07;;;;;;;3.42;1.00;;;;;;;9.23;66.64;100656.61;1710142;82;21082;-73
2021/09/03 03:34:33;;;;;;;5.70;1.00;;;;;;;9.17;66.81;100651.78;1730296;80;20998;-72
2021/09/03 03:37:01;;;;;;;2.92;1.00;;;;;;;9.18;66.81;100653.92;1708599;82;21064;-74
2021/09/03 03:39:27;;;;;;;3.62;1.00;;;;;;;9.26;66.67;100655.54;1711285;82;21185;-71
2021/09/03 03:41:54;;;;;;;3.20;1.05;;;;;;;9.31;66.61;100660.00;1707379;82;21135;-73
2021/09/03 03:44:21;;;;;;;2.27;0.72;;;;;;;9.29;66.63;100660.58;1711427;82;21064;-74
2021/09/03 03:46:47;;;;;;;3.52;1.10;;;;;;;9.26;66.72;100666.05;1707371;82;21401;-73
2021/09/03 03:49:15;;;;;;;4.25;1.10;;;;;;;9.23;66.92;100653.13;1714718;82;21014;-76
2021/09/03 03:51:41;;;;;;;3.70;1.32;;;;;;;9.23;67.01;100661.00;1706995;82;21071;-73
2021/09/03 03:54:07;;;;;;;3.95;1.10;;;;;;;9.22;67.02;100660.66;1700129;82;21035;-74
2021/09/03 03:56:34;;;;;;;6.87;0.88;;;;;;;9.28;67.17;100659.75;1705709;82;21091;-76
2021/09/03 03:59:01;;;;;;;3.58;0.88;;;;;;;9.41;66.92;100659.70;1705586;82;21056;-70
2021/09/03 04:01:28;;;;;;;2.90;0.93;;;;;;;9.48;66.66;100654.86;1712305;82;21606;-70
2021/09/03 04:03:55;;;;;;;4.12;1.30;;;;;;;9.54;66.46;100659.69;1709875;82;21176;-74
2021/09/03 04:06:23;;;;;;;3.98;1.25;;;;;;;9.58;66.33;100652.42;1713247;82;21127;-74
2021/09/03 04:08:49;;;;;;;4.00;1.00;;;;;;;9.55;65.96;100661.83;1706536;82;21068;-73
2021/09/03 04:11:17;;;;;;;5.00;1.27;;;;;;;9.50;66.13;100658.24;1708023;82;21070;-72
2021/09/03 04:13:44;;;;;;;5.28;1.22;;;;;;;9.48;66.09;100663.59;1702624;82;21123;-68
2021/09/03 04:16:12;;;;;;;2.77;0.93;;;;;;;9.47;66.19;100661.91;1702516;82;20989;-68
2021/09/03 04:18:39;;;;;;;2.52;0.68;;;;;;;9.51;66.05;100661.21;1704520;82;21143;-65
2021/09/03 04:21:07;;;;;;;6.05;1.42;;;;;;;9.62;65.82;100662.61;1712175;82;21093;-67
2021/09/03 04:23:33;;;;;;;4.87;1.07;;;;;;;9.67;65.68;100657.03;1709299;82;21511;-64
2021/09/03 04:26:00;;;;;;;4.17;0.80;;;;;;;9.69;65.70;100663.02;1710347;82;21110;-67
2021/09/03 04:28:26;;;;;;;3.75;0.90;;;;;;;9.76;65.73;100664.72;1708831;82;21116;-66
2021/09/03 04:30:52;;;;;;;3.37;1.00;;;;;;;9.81;65.54;100662.11;1711306;82;21582;-66
2021/09/03 04:33:19;;;;;;;3.12;1.07;;;;;;;9.84;65.49;100659.27;1702358;82;21110;-66
2021/09/03 04:35:45;;;;;;;2.77;0.88;;;;;;;9.91;65.42;100661.46;1709665;82;21774;-65
2021/09/03 04:38:11;;;;;;;3.17;1.12;;;;;;;9.94;65.29;100666.50;1692988;82;21115;-64
2021/09/03 04:40:38;;;;;;;3.00;0.82;;;;;;;9.97;65.26;100665.80;1698070;82;21069;-65
2021/09/03 04:43:04;;;;;;;3.60;1.20;;;;;;;10.06;65.28;100657.70;1707089;82;21543;-66
2021/09/03 04:45:31;;;;;;;6.35;1.02;;;;;;;10.16;65.09;100660.02;1704464;82;21118;-65
2021/09/03 04:47:58;;;;;;;3.00;0.95;;;;;;;10.22;64.73;100656.94;1714376;81;21063;-68
2021/09/03 04:50:25;;;;;;;3.72;1.10;;;;;;;10.26;64.73;100660.18;1687289;82;21596;-64
2021/09/03 04:52:53;;;;;;;2.35;0.90;;;;;;;10.30;64.58;100660.78;1673851;83;22366;-66
2021/09/03 04:55:19;;;;;;;5.28;1.40;;;;;;;10.32;64.16;100658.91;1674304;83;21156;-65
2021/09/03 04:57:46;;;;;;;3.65;1.35;;;;;;;10.32;64.23;100661.53;1671476;84;21677;-64
2021/09/03 05:00:17;;;;;;;3.50;1.27;;;;;;;10.33;64.39;100667.17;1675383;84;21094;-64
2021/09/03 05:02:44;;;;;;;3.15;1.00;;;;;;;10.37;64.24;100669.47;1673901;84;21543;-66
2021/09/03 05:05:11;;;;;;;3.52;0.80;;;;;;;10.43;64.15;100678.68;1667188;84;21134;-62
2021/09/03 05:07:38;;;;;;;6.05;1.32;;;;;;;10.49;63.84;100667.70;1674614;83;21140;-66
2021/09/03 05:10:06;;;;;;;5.25;1.25;;;;;;;10.55;63.84;100672.97;1657008;82;21380;-65
2021/09/03 05:12:34;;;;;;;2.37;0.70;;;;;;;10.56;63.88;100681.24;1672136;83;21556;-67
2021/09/03 05:15:01;;;;;;;2.47;1.00;;;;;;;10.58;63.93;100674.06;1670383;83;21535;-63
2021/09/03 05:17:28;;;;;;;4.40;1.50;;;;;;;10.63;64.06;100677.67;1670014;83;21539;-60
2021/09/03 05:19:54;;;;;;;4.50;1.20;;;;;;;10.74;63.53;100682.94;1679027;83;21045;-65
2021/09/03 05:22:22;;;;;;;3.33;0.85;;;;;;;10.81;63.43;100678.91;1672935;84;21936;-65
2021/09/03 05:24:49;;;;;;;3.10;0.65;;;;;;;10.88;63.36;100677.96;1660210;84;21053;-66
2021/09/03 05:27:15;;;;;;;2.75;0.70;;;;;;;10.95;63.03;100685.73;1675515;83;21560;-64
2021/09/03 05:29:42;;;;;;;2.62;0.80;;;;;;;11.06;62.83;100678.31;1678060;83;21060;-66
2021/09/03 05:32:10;;;;;;;2.85;0.93;;;;;;;11.18;62.67;100673.44;1677027;83;21344;-66
2021/09/03 05:34:36;;;;;;;4.00;0.90;;;;;;;11.26;62.02;100676.31;1656815;84;21086;-67
2021/09/03 05:37:03;;;;;;;3.55;1.47;;;;;;;11.30;61.86;100670.31;1676567;84;21799;-66
2021/09/03 05:39:29;;;;;;;2.70;0.80;;;;;;;11.37;62.00;100671.98;1670764;84;21078;-65
2021/09/03 05:41:57;;;;;;;5.08;1.15;;;;;;;11.46;61.86;100669.93;1676319;84;21861;-66
2021/09/03 05:44:23;;;;;;;2.90;0.80;;;;;;;11.51;61.48;100674.36;1676752;83;21112;-66
2021/09/03 05:46:51;;;;;;;4.58;0.78;;;;;;;11.55;61.28;100670.98;1678508;83;21007;-65
2021/09/03 05:49:18;;;;;;;4.05;0.90;;;;;;;11.58;60.94;100667.63;1660420;82;21081;-73
2021/09/03 05:51:45;;;;;;;3.08;0.85;;;;;;;11.64;61.09;100667.15;1686339;83;21096;-64
2021/09/03 05:54:11;;;;;;;3.08;0.82;;;;;;;11.72;60.85;100670.50;1685817;83;21213;-66
2021/09/03 05:56:38;;;;;;;2.35;0.70;;;;;;;11.84;60.56;100664.23;1698434;82;21092;-66
2021/09/03 05:59:05;;;;;;;5.60;0.98;;;;;;;11.98;60.25;100653.90;1703003;82;21066;-64
2021/09/03 06:01:32;;;;;;;3.52;1.00;;;;;;;12.11;59.84;100654.23;1702128;82;21035;-65
2021/09/03 06:04:00;;;;;;;3.47;1.05;;;;;;;12.20;59.78;100656.92;1707562;82;21006;-66
2021/09/03 06:06:27;;;;;;;6.92;1.20;;;;;;;12.30;59.83;100653.05;1702178;82;21074;-67
2021/09/03 06:08:53;;;;;;;5.15;0.98;;;;;;;12.39;58.63;100649.66;1703146;82;21041;-65
2021/09/03 06:11:24;;;;;;;2.52;0.80;;;;;;;12.44;58.92;100646.64;1683120;83;21058;-64
2021/09/03 06:13:49;;;;;;;3.67;1.00;;;;;;;12.51;58.33;100654.86;1706792;82;21085;-66
2021/09/03 06:16:16;;;;;;;3.02;0.70;;;;;;;12.56;58.34;100650.06;1698431;83;21053;-65
2021/09/03 06:18:43;;;;;;;2.33;0.70;;;;;;;12.64;58.05;100647.58;1708575;82;21902;-66
2021/09/03 06:21:09;;;;;;;4.20;1.02;;;;;;;12.71;58.06;100648.75;1692204;83;20995;-66
2021/09/03 06:23:35;;;;;;;3.45;0.85;;;;;;;12.80;57.42;100645.31;1698445;82;21624;-66
2021/09/03 06:26:02;;;;;;;5.70;1.00;;;;;;;12.86;57.24;100645.76;1696987;82;21094;-61
2021/09/03 06:28:28;;;;;;;4.85;0.80;;;;;;;12.90;57.05;100643.22;1703504;82;21502;-65
2021/09/03 06:30:55;;;;;;;2.27;0.68;;;;;;;12.93;56.83;100645.11;1699120;82;21200;-66
2021/09/03 06:33:21;;;;;;;2.35;0.60;;;;;;;12.97;56.56;100645.69;1688142;82;21112;-65
2021/09/03 06:35:47;;;;;;;4.92;1.07;;;;;;;13.03;56.60;100648.27;1698585;83;21014;-66
2021/09/03 06:38:13;;;;;;;2.65;0.78;;;;;;;13.09;56.80;100645.94;1703937;82;21029;-63
2021/09/03 06:40:40;;;;;;;4.92;0.65;;;;;;;13.16;56.52;100648.42;1704481;82;21105;-65
2021/09/03 06:43:06;;;;;;;3.80;1.00;;;;;;;13.21;55.59;100641.39;1677183;83;21186;-63
2021/09/03 06:45:32;;;;;;;1.87;0.68;;;;;;;13.31;55.84;100642.75;1707199;82;21006;-69
2021/09/03 06:47:58;;;;;;;2.98;0.80;;;;;;;13.37;55.10;100648.86;1702490;82;21133;-63
2021/09/03 06:50:25;;;;;;;3.17;0.75;;;;;;;13.39;54.70;100650.87;1705614;82;21103;-64
2021/09/03 06:52:52;;;;;;;2.08;0.62;;;;;;;13.44;55.10;100639.41;1708628;82;21104;-63
2021/09/03 06:55:18;;;;;;;2.87;0.65;;;;;;;13.51;54.81;100648.47;1713461;82;23319;-65
2021/09/03 06:57:45;;;;;;;2.98;0.60;;;;;;;13.58;54.34;100644.80;1707952;82;21079;-64
2021/09/03 07:00:12;;;;;;;3.98;0.85;;;;;;;13.67;54.64;100649.78;1703718;82;21400;-64
2021/09/03 07:02:40;;;;;;;2.12;0.50;;;;;;;13.75;54.41;100645.47;1705959;82;21048;-64
2021/09/03 07:05:09;;;;;;;2.92;0.80;;;;;;;13.85;53.88;100647.28;1705996;82;21138;-64
2021/09/03 07:07:36;;;;;;;4.78;1.75;;;;;;;13.91;53.82;100636.16;1701629;82;23287;-65
2021/09/03 07:10:03;;;;;;;3.85;0.75;;;;;;;14.00;53.72;100641.92;1704653;82;21029;-67
2021/09/03 07:12:30;;;;;;;5.90;1.02;;;;;;;14.10;53.36;100642.79;1708378;82;21064;-64
2021/09/03 07:14:58;;;;;;;3.90;0.93;;;;;;;14.20;53.30;100641.94;1705241;82;21033;-66
2021/09/03 07:17:26;;;;;;;3.00;0.82;;;;;;;14.31;53.30;100632.03;1702329;82;21732;-65
2021/09/03 07:19:52;;;;;;;3.47;0.80;;;;;;;14.40;52.20;100640.94;1703775;82;21121;-65
2021/09/03 07:22:19;;;;;;;6.65;0.90;;;;;;;14.48;52.25;100636.27;1722903;81;21124;-67
2021/09/03 07:24:45;;;;;;;2.45;0.53;;;;;;;14.54;52.13;100641.01;1704370;82;21468;-65
2021/09/03 07:27:11;;;;;;;4.08;0.60;;;;;;;14.62;51.65;100649.08;1706555;82;21158;-65
2021/09/03 07:42:27;;;;;;;1.95;0.50;;;;;;;16.31;47.28;100620.53;1735255;81;22978;-67
2021/09/03 07:44:55;;;;;;;2.10;0.45;;;;;;;16.48;46.31;100618.31;1716531;82;21137;-66
2021/09/03 07:47:22;;;;;;;1.62;0.50;;;;;;;16.49;45.98;100619.99;1721775;81;21552;-69
2021/09/03 07:49:48;;;;;;;2.10;0.60;;;;;;;16.45;46.15;100626.59;1715955;81;21038;-66
2021/09/03 07:52:15;;;;;;;1.87;0.47;;;;;;;16.37;46.02;100609.77;1691932;83;21106;-64
2021/09/03 07:54:41;;;;;;;4.08;0.57;;;;;;;16.27;46.80;100619.15;1714504;81;21105;-67
2021/09/03 07:57:07;;;;;;;2.05;0.50;;;;;;;16.23;47.26;100608.01;1711523;81;21096;-69
2021/09/03 07:59:34;;;;;;;1.92;0.40;;;;;;;16.19;45.70;100609.32;1716460;81;22389;-72
2021/09/03 08:02:01;;;;;;;5.03;1.10;;;;;;;16.17;46.26;100595.34;1689338;82;21126;-69
2021/09/03 08:04:29;;;;;;;1.75;0.40;;;;;;;16.19;46.08;100601.35;1713429;81;21117;-73
2021/09/03 08:06:57;;;;;;;1.65;0.30;;;;;;;16.22;45.15;100592.23;1714230;81;21018;-68
2021/09/03 08:09:24;;;;;;;2.25;0.72;;;;;;;16.23;45.64;100593.91;1716793;81;21533;-68
2021/09/03 08:11:52;;;;;;;1.62;0.50;;;;;;;16.20;45.58;100598.20;1716177;81;21019;-73
2021/09/03 08:14:19;;;;;;;2.72;0.47;;;;;;;16.22;46.09;100593.55;1714472;81;21053;-68
2021/09/03 08:16:45;;;;;;;2.80;0.80;;;;;;;16.29;45.55;100586.63;1687659;83;21592;-68
2021/09/03 08:19:13;;;;;;;1.95;0.50;;;;;;;16.37;45.65;100585.36;1717115;81;21040;-70
2021/09/03 08:21:41;;;;;;;2.33;0.50;;;;;;;16.47;46.66;100579.45;1714405;81;21097;-68
2021/09/03 08:24:08;;;;;;;2.02;0.70;;;;;;;16.62;45.17;100598.81;1716317;81;21332;-68
2021/09/03 08:26:34;;;;;;;5.15;0.65;;;;;;;16.66;44.84;100590.38;1712150;81;21120;-68
2021/09/03 08:29:00;;;;;;;1.95;0.55;;;;;;;16.73;45.19;100589.25;1700242;82;21054;-64
2021/09/03 08:31:27;;;;;;;0.70;0.30;;;;;;;16.82;44.85;100577.66;1711172;81;21477;-72
2021/09/03 08:33:54;;;;;;;1.87;0.50;;;;;;;16.87;44.91;100568.74;1714923;81;21073;-67
2021/09/03 08:36:20;;;;;;;2.02;0.50;;;;;;;16.92;45.25;100571.44;1709812;81;21893;-72
2021/09/03 08:38:47;;;;;;;1.95;0.50;;;;;;;16.98;45.42;100574.77;1710166;81;21083;-70
2021/09/03 08:41:17;;;;;;;2.08;0.50;;;;;;;17.05;45.94;100587.77;1712950;81;22252;-67
2021/09/03 08:43:44;;;;;;;6.25;1.00;;;;;;;17.15;44.77;100577.84;1714391;81;21122;-70
2021/09/03 08:46:11;;;;;;;2.05;0.45;;;;;;;17.21;44.32;100571.03;1714539;81;21141;-69
2021/09/03 08:48:38;;;;;;;1.12;0.40;;;;;;;17.20;44.28;100572.87;1684977;83;22538;-70
2021/09/03 08:51:04;;;;;;;2.05;0.40;;;;;;;17.19;44.67;100568.53;1665409;83;21138;-66
2021/09/03 08:53:30;;;;;;;1.32;0.33;;;;;;;17.15;44.49;100562.39;1710685;81;21748;-61
2021/09/03 08:55:57;;;;;;;1.85;0.40;;;;;;;17.09;44.48;100566.00;1716549;81;21110;-68
2021/09/03 08:58:24;;;;;;;1.70;0.60;;;;;;;17.09;44.81;100559.86;1710891;81;21513;-67
2021/09/03 09:04:47;;;;;;;4.45;0.53;;;;;;;17.27;44.69;100560.58;1712542;81;21078;-61
2021/09/03 09:07:15;;;;;;;3.55;0.60;;;;;;;17.40;44.29;100552.62;1719173;81;21058;-61
2021/09/03 09:09:44;;;;;;;3.87;1.32;;;;;;;17.48;44.39;100549.97;1708788;81;21129;-64
2021/09/03 09:12:16;;;;;;;1.95;0.60;;;;;;;17.57;44.13;100540.20;1714857;81;21750;-65
2021/09/03 09:15:08;;;;;;;4.28;0.50;;;;;;;17.67;44.69;100546.20;1712351;81;22217;-63
2021/09/03 09:17:42;;;;;;;2.10;0.60;;;;;;;17.72;44.47;100547.01;1713306;81;21055;-65
2021/09/03 09:20:14;;;;;;;2.60;0.70;;;;;;;17.70;43.60;100543.21;1712304;81;21090;-64
2021/09/03 09:23:04;;;;;;;4.10;0.50;;;;;;;17.72;44.09;100542.53;1712113;81;21129;-60
2021/09/03 09:25:33;;;;;;;4.05;0.50;;;;;;;17.76;43.98;100535.05;1711027;81;21018;-61
2021/09/03 09:28:17;;;;;;;7.53;0.75;;;;;;;17.86;43.87;100537.55;1715115;81;21055;-62
2021/09/03 09:30:44;;;;;;;2.05;0.62;;;;;;;17.91;42.18;100543.23;1714565;81;21035;-65
2021/09/03 09:33:18;;;;;;;2.98;0.57;;;;;;;17.87;41.84;100526.77;1709301;81;21590;-64
2021/09/03 09:35:53;;;;;;;3.55;0.98;;;;;;;17.87;41.83;100519.27;1719106;81;21536;-65
2021/09/03 09:38:27;;;;;;;4.03;0.90;;;;;;;17.92;42.56;100523.11;1712635;81;21611;-61
2021/09/03 09:40:59;;;;;;;3.22;0.90;;;;;;;17.97;42.58;100514.59;1703521;81;21153;-65
2021/09/03 09:43:42;;;;;;;2.35;0.70;;;;;;;18.05;43.13;100517.25;1678600;83;22582;-59
2021/09/03 09:46:22;;;;;;;2.83;0.45;;;;;;;18.15;42.64;100527.22;1680211;83;21073;-63
2021/09/03 09:48:56;;;;;;;1.15;0.30;;;;;;;18.17;42.35;100503.94;1676153;83;21127;-64
2021/09/03 09:51:37;;;;;;;2.37;0.70;;;;;;;18.18;42.48;100524.22;1678763;83;22363;-60
2021/09/03 09:54:09;;;;;;;4.53;1.10;;;;;;;18.27;42.98;100498.91;1674970;83;21157;-64
2021/09/03 09:56:39;;;;;;;3.30;1.10;;;;;;;18.43;41.97;100507.38;1675122;83;21184;-61
2021/09/03 09:59:08;;;;;;;2.08;0.60;;;;;;;18.51;41.68;100512.17;1675106;83;21097;-62
2021/09/03 10:01:37;;;;;;;4.97;0.78;;;;;;;18.52;42.29;100502.33;1674929;83;21097;-62
2021/09/03 10:04:06;;;;;;;2.75;0.88;;;;;;;18.53;42.36;100508.00;1676518;83;21173;-62
2021/09/03 10:06:34;;;;;;;3.00;0.93;;;;;;;18.55;42.17;100513.47;1674518;83;21151;-60
2021/09/03 10:09:04;;;;;;;4.70;0.68;;;;;;;18.56;41.48;100507.66;1648939;85;21601;-62
2021/09/03 10:28:27;;;;;;;;;;;;;;;18.55;42.12;100472.69;1640931;85;21506;-68
2021/09/03 10:31:06;;;;;;;2.47;0.70;;;;;;;18.60;41.65;100486.31;1626996;85;20667;-65
2021/09/03 10:33:36;;;;;;;4.12;0.50;;;;;;;18.51;41.96;100505.51;1640429;84;21577;-67
2021/09/03 10:36:03;;;;;;;2.12;0.70;;;;;;;18.51;40.06;100488.70;1654965;84;21103;-63
2021/09/03 10:38:33;;;;;;;2.33;0.70;;;;;;;18.54;41.17;100483.00;1627100;86;21369;-64
2021/09/03 10:41:01;;;;;;;3.45;1.45;;;;;;;18.65;40.53;100479.14;1616476;85;21092;-69
2021/09/03 10:43:44;;;;;;;2.65;0.80;;;;;;;18.73;40.78;100477.27;1648660;85;21090;-66
2021/09/03 10:46:12;;;;;;;4.00;0.93;;;;;;;18.75;40.98;100491.75;1641514;85;21103;-68
2021/09/03 10:48:39;;;;;;;3.55;0.90;;;;;;;18.75;41.10;100479.76;1647259;85;21797;-65
2021/09/03 10:51:05;;;;;;;4.83;0.85;;;;;;;18.79;41.23;100467.73;1651537;85;21187;-64
2021/09/03 10:53:36;;;;;;;5.55;0.80;;;;;;;18.81;41.45;100469.74;1647057;86;21057;-67
2021/09/03 10:56:13;;;;;;;2.92;0.62;;;;;;;18.86;41.15;100463.89;1648000;86;21106;-67
2021/09/03 10:58:50;;;;;;;3.58;1.10;;;;;;;18.96;41.89;100455.16;1650732;85;21126;-66
2021/09/03 11:01:28;;;;;;;6.25;0.82;;;;;;;19.13;40.90;100454.55;1640249;86;21108;-64
2021/09/03 11:04:10;;;;;;;4.95;0.88;;;;;;;19.27;41.45;100467.66;1642994;85;21619;-68
2021/09/03 11:06:40;;;;;;;2.17;0.60;;;;;;;19.38;40.23;100451.20;1625941;85;21440;-66
2021/09/03 11:09:22;;;;;;;4.90;1.10;;;;;;;19.39;39.94;100456.88;1646017;84;21129;-66
2021/09/03 11:12:01;;;;;;;5.87;0.93;;;;;;;19.45;40.31;100436.16;1645770;85;21829;-67
2021/09/03 11:14:30;;;;;;;4.70;0.88;;;;;;;19.53;39.96;100446.44;1645918;86;21186;-67
2021/09/03 11:17:12;;;;;;;3.92;1.22;;;;;;;19.53;39.87;100446.44;1635402;86;21045;-69
2021/09/03 11:19:47;;;;;;;4.30;0.82;;;;;;;19.53;39.43;100439.77;1648481;85;21018;-68
2021/09/03 11:22:21;;;;;;;3.02;0.98;;;;;;;19.48;39.54;100438.95;1652983;85;21157;-66
2021/09/03 11:24:52;;;;;;;3.75;0.93;;;;;;;19.46;40.09;100426.31;1649179;86;21161;-67
2021/09/03 11:27:22;;;;;;;4.53;1.15;;;;;;;19.49;40.51;100421.44;1648873;85;21127;-71
2021/09/03 11:29:56;;;;;;;2.83;0.85;;;;;;;19.62;40.02;100430.17;1648859;85;21105;-65
2021/09/03 11:32:25;;;;;;;2.90;0.90;;;;;;;19.75;40.12;100428.74;1627893;86;21510;-64
2021/09/03 11:35:08;;;;;;;3.70;1.10;;;;;;;19.81;39.64;100424.02;1620932;87;21098;-63
2021/09/03 11:37:43;;;;;;;4.92;0.98;;;;;;;19.81;39.09;100412.83;1643971;86;21073;-65
2021/09/03 11:40:24;;;;;;;4.58;0.90;;;;;;;19.80;39.10;100409.86;1644841;85;21156;-63
2021/09/03 11:42:55;;;;;;;2.98;0.82;;;;;;;19.86;39.28;100411.77;1645991;85;21062;-74
2021/09/03 11:45:27;;;;;;;5.50;1.12;;;;;;;19.88;38.97;100408.10;1645488;85;21122;-65
2021/09/03 11:48:03;;;;;;;3.37;0.82;;;;;;;19.85;39.39;100399.45;1648849;85;21121;-64
2021/09/03 11:50:44;;;;;;;6.25;1.20;;;;;;;19.81;39.28;100399.48;1621725;85;21608;-62
2021/09/03 11:53:17;;;;;;;4.30;0.72;;;;;;;19.76;39.63;100401.87;1646047;85;21157;-68
2021/09/03 11:55:48;;;;;;;2.17;0.70;;;;;;;19.77;39.04;100398.69;1644673;85;21023;-71
2021/09/03 11:58:22;;;;;;;3.72;0.90;;;;;;;19.81;39.60;100394.14;1650742;85;21138;-69
2021/09/03 12:00:55;;;;;;;5.12;1.17;;;;;;;19.86;39.21;100393.08;1641545;85;21079;-58
2021/09/03 12:03:35;;;;;;;4.67;1.32;;;;;;;19.88;39.64;100382.73;1639934;85;21097;-68
2021/09/03 12:06:04;;;;;;;4.22;1.00;;;;;;;19.94;38.72;100387.31;1632632;85;21148;-67
2021/09/03 12:08:36;;;;;;;6.17;1.32;;;;;;;19.92;38.86;100380.00;1639982;85;21588;-68
2021/09/03 12:11:13;;;;;;;5.20;1.12;;;;;;;19.93;39.13;100384.34;1640081;85;21157;-67